createdAt,value
2023-05-20T00:01:33.068Z,102211.13
2023-05-20T00:03:59.826Z,102213.69
2023-05-20T00:06:26.444Z,102206.28
2023-05-20T00:08:52.885Z,102207.53
2023-05-20T00:11:19.371Z,102207.94
2023-05-20T00:13:45.826Z,102200.13
2023-05-20T00:16:12.343Z,102199.31
2023-05-20T00:18:38.862Z,102192.41
2023-05-20T00:21:05.348Z,102201.28
2023-05-20T00:23:31.793Z,102196.41
2023-05-20T00:26:00.594Z,102196.88
2023-05-20T00:28:27.381Z,102193.84
2023-05-20T00:30:54.700Z,102202.09
2023-05-20T00:33:21.419Z,102203.09
2023-05-20T00:35:48.003Z,102206.81
2023-05-20T00:38:14.544Z,102203.69
2023-05-20T00:40:41.051Z,102200.13
2023-05-20T00:43:08.049Z,102204.69
2023-05-20T00:45:34.847Z,102203.84
2023-05-20T00:48:04.064Z,102200.78
2023-05-20T00:50:31.972Z,102204.16
2023-05-20T00:52:58.842Z,102196.19
2023-05-20T00:55:25.763Z,102200.63
2023-05-20T00:57:53.612Z,102191.13
2023-05-20T01:00:20.093Z,102196.22
2023-05-20T01:02:46.717Z,102185.09
2023-05-20T01:05:13.293Z,102186.56
2023-05-20T01:07:40.001Z,102183.16
2023-05-20T01:10:07.251Z,102188.66
2023-05-20T01:12:46.325Z,102184.50
2023-05-20T01:15:14.849Z,102185.34
2023-05-20T01:17:46.615Z,102182.38
2023-05-20T01:20:14.597Z,102185.38
2023-05-20T01:22:53.547Z,102178.41
2023-05-20T01:25:20.087Z,102186.38
2023-05-20T01:27:48.975Z,102178.50
2023-05-20T01:30:16.174Z,102187.56
2023-05-20T01:32:54.093Z,102180.78
2023-05-20T01:35:22.446Z,102178.63
2023-05-20T01:37:52.186Z,102175.09
2023-05-20T01:40:19.992Z,102173.81
2023-05-20T01:42:52.748Z,102165.00
2023-05-20T01:45:19.848Z,102164.50
2023-05-20T01:47:46.803Z,102161.22
2023-05-20T01:50:13.428Z,102169.06
2023-05-20T01:52:39.897Z,102160.16
2023-05-20T01:55:06.626Z,102149.28
2023-05-20T01:57:33.079Z,102154.94
2023-05-20T01:59:59.605Z,102156.63
2023-05-20T02:02:26.229Z,102148.94
2023-05-20T02:04:54.134Z,102146.59
2023-05-20T02:07:20.653Z,102152.38
2023-05-20T02:09:47.645Z,102162.47
2023-05-20T02:12:17.384Z,102158.00
2023-05-20T02:14:45.220Z,102163.41
2023-05-20T02:17:11.999Z,102171.31
2023-05-20T02:19:38.461Z,102167.81
2023-05-20T02:22:05.093Z,102160.53
2023-05-20T02:24:31.888Z,102162.28
2023-05-20T02:26:59.013Z,102161.47
2023-05-20T02:29:26.545Z,102168.84
2023-05-20T02:31:53.012Z,102161.19
2023-05-20T02:34:21.364Z,102165.09
2023-05-20T02:36:47.976Z,102159.66
2023-05-20T02:39:14.574Z,102162.72
2023-05-20T02:41:41.093Z,102161.03
2023-05-20T02:44:07.566Z,102164.25
2023-05-20T02:46:34.717Z,102165.91
2023-05-20T02:49:01.306Z,102163.69
2023-05-20T02:51:27.817Z,102172.84
2023-05-20T02:53:54.303Z,102164.59
2023-05-20T02:56:21.465Z,102169.47
2023-05-20T02:58:48.456Z,102169.56
2023-05-20T03:01:14.961Z,102176.13
2023-05-20T03:03:42.887Z,102171.13
2023-05-20T03:06:09.362Z,102175.97
2023-05-20T03:08:36.320Z,102178.06
2023-05-20T03:11:04.783Z,102177.56
2023-05-20T03:13:31.928Z,102176.84
2023-05-20T03:15:58.665Z,102187.59
2023-05-20T03:18:25.387Z,102180.91
2023-05-20T03:20:51.910Z,102183.78
2023-05-20T03:23:18.387Z,102182.22
2023-05-20T03:25:46.213Z,102179.75
2023-05-20T03:28:12.854Z,102181.59
2023-05-20T03:30:39.398Z,102179.97
2023-05-20T03:33:05.980Z,102174.47
2023-05-20T03:35:32.769Z,102188.91
2023-05-20T03:38:01.728Z,102186.38
2023-05-20T03:40:28.781Z,102189.75
2023-05-20T03:42:55.624Z,102182.97
2023-05-20T03:45:22.192Z,102181.88
2023-05-20T03:47:57.826Z,102191.47
2023-05-20T03:50:24.388Z,102187.97
2023-05-20T03:52:50.884Z,102189.34
2023-05-20T03:55:20.533Z,102190.28
2023-05-20T03:57:47.352Z,102194.53
2023-05-20T04:00:14.645Z,102186.38
2023-05-20T04:02:43.667Z,102189.94
2023-05-20T04:05:13.917Z,102193.16
2023-05-20T04:07:41.300Z,102188.91
2023-05-20T04:10:09.110Z,102186.38
2023-05-20T04:12:38.203Z,102187.56
2023-05-20T04:15:05.891Z,102190.53
2023-05-20T04:17:40.567Z,102181.97
2023-05-20T04:20:08.159Z,102182.56
2023-05-20T04:22:37.036Z,102188.91
2023-05-20T04:25:05.222Z,102181.38
2023-05-20T04:27:33.684Z,102182.31
2023-05-20T04:30:02.322Z,102180.44
2023-05-20T04:32:34.451Z,102183.25
2023-05-20T04:35:02.164Z,102178.22
2023-05-20T04:37:32.070Z,102181.78
2023-05-20T04:39:58.623Z,102189.41
2023-05-20T04:42:25.815Z,102181.91
2023-05-20T04:44:52.653Z,102190.00
2023-05-20T04:47:19.142Z,102189.34
2023-05-20T04:49:45.741Z,102194.00
2023-05-20T04:52:12.377Z,102189.41
2023-05-20T04:54:40.271Z,102193.34
2023-05-20T04:57:07.064Z,102188.25
2023-05-20T04:59:33.553Z,102186.16
2023-05-20T05:02:00.221Z,102184.91
2023-05-20T05:04:26.898Z,102177.50
2023-05-20T05:06:53.390Z,102173.09
2023-05-20T05:09:19.861Z,102170.97
2023-05-20T05:11:46.672Z,102159.44
2023-05-20T05:14:13.210Z,102153.91
2023-05-20T05:16:39.897Z,102160.38
2023-05-20T05:19:07.283Z,102171.31
2023-05-20T05:21:36.757Z,102173.50
2023-05-20T05:24:03.894Z,102166.53
2023-05-20T05:26:30.451Z,102168.94
2023-05-20T05:28:56.973Z,102172.66
2023-05-20T05:31:23.513Z,102171.09
2023-05-20T05:33:50.223Z,102172.78
2023-05-20T05:36:17.015Z,102169.72
2023-05-20T05:38:44.409Z,102167.94
2023-05-20T05:41:10.885Z,102168.50
2023-05-20T05:43:37.454Z,102167.41
2023-05-20T05:46:05.217Z,102166.97
2023-05-20T05:48:32.271Z,102164.78
2023-05-20T05:50:59.263Z,102162.00
2023-05-20T05:53:26.280Z,102161.22
2023-05-20T05:55:52.777Z,102155.28
2023-05-20T05:58:19.298Z,102151.97
2023-05-20T06:00:45.820Z,102151.97
2023-05-20T06:03:12.513Z,102163.28
2023-05-20T06:05:39.874Z,102156.84
2023-05-20T06:08:06.417Z,102158.81
2023-05-20T06:10:34.861Z,102154.38
2023-05-20T06:13:01.342Z,102149.34
2023-05-20T06:15:28.064Z,102152.81
2023-05-20T06:17:55.428Z,102149.72
2023-05-20T06:20:22.118Z,102155.66
2023-05-20T06:22:48.778Z,102159.06
2023-05-20T06:25:15.332Z,102158.25
2023-05-20T06:27:42.311Z,102165.59
2023-05-20T06:30:11.954Z,102164.47
2023-05-20T06:32:38.417Z,102165.91
2023-05-20T06:35:05.689Z,102163.22
2023-05-20T06:37:32.201Z,102171.00
2023-05-20T06:39:58.663Z,102179.84
2023-05-20T06:42:25.118Z,102167.91
2023-05-20T06:45:03.109Z,102170.38
2023-05-20T06:47:36.165Z,102160.84
2023-05-20T06:50:02.725Z,102159.19
2023-05-20T06:52:30.065Z,102167.31
2023-05-20T06:54:56.521Z,102174.06
2023-05-20T06:57:23.875Z,102165.66
2023-05-20T06:59:50.350Z,102165.72
2023-05-20T07:02:18.099Z,102164.09
2023-05-20T07:04:44.566Z,102167.84
2023-05-20T07:07:11.050Z,102171.44
2023-05-20T07:09:37.778Z,102166.41
2023-05-20T07:12:06.609Z,102162.97
2023-05-20T07:14:33.085Z,102165.75
2023-05-20T07:17:00.474Z,102169.28
2023-05-20T07:19:27.066Z,102163.13
2023-05-20T07:21:53.891Z,102154.72
2023-05-20T07:24:36.026Z,102146.63
2023-05-20T07:27:04.325Z,102146.69
2023-05-20T07:29:31.321Z,102143.66
2023-05-20T07:31:58.113Z,102151.22
2023-05-20T07:34:24.883Z,102140.41
2023-05-20T07:36:51.606Z,102133.94
2023-05-20T07:39:18.122Z,102143.19
2023-05-20T07:41:44.577Z,102135.97
2023-05-20T07:44:13.085Z,102127.84
2023-05-20T07:46:42.950Z,102134.28
2023-05-20T07:49:11.103Z,102134.94
2023-05-20T07:51:39.087Z,102132.63
2023-05-20T07:54:05.925Z,102123.72
2023-05-20T07:56:33.263Z,102127.19
2023-05-20T07:59:00.541Z,102119.59
2023-05-20T08:01:30.254Z,102121.88
2023-05-20T08:03:57.130Z,102126.09
2023-05-20T08:06:26.230Z,102118.47
2023-05-20T08:08:54.266Z,102120.78
2023-05-20T08:11:25.512Z,102119.97
2023-05-20T08:13:52.145Z,102120.31
2023-05-20T08:16:18.863Z,102110.75
2023-05-20T08:18:45.605Z,102110.78
2023-05-20T08:21:13.940Z,102113.69
2023-05-20T08:23:40.720Z,102102.69
2023-05-20T08:26:07.693Z,102102.13
2023-05-20T08:28:37.918Z,102095.41
2023-05-20T08:31:04.932Z,102097.09
2023-05-20T08:33:32.556Z,102095.41
2023-05-20T08:35:59.009Z,102090.91
2023-05-20T08:38:25.483Z,102085.25
2023-05-20T08:40:56.399Z,102086.41
2023-05-20T08:43:24.571Z,102083.59
2023-05-20T08:45:53.732Z,102083.59
2023-05-20T08:48:23.253Z,102082.19
2023-05-20T08:50:55.718Z,102097.69
2023-05-20T08:53:22.606Z,102084.13
2023-05-20T08:55:55.025Z,102085.25
2023-05-20T08:58:23.289Z,102077.94
2023-05-20T09:00:51.125Z,102084.41
2023-05-20T09:03:17.911Z,102086.66
2023-05-20T09:05:44.402Z,102083.28
2023-05-20T09:08:11.836Z,102085.53
2023-05-20T09:10:39.901Z,102091.47
2023-05-20T09:13:07.345Z,102088.34
2023-05-20T09:15:35.641Z,102084.94
2023-05-20T09:18:04.206Z,102090.88
2023-05-20T09:20:34.014Z,102092.84
2023-05-20T09:23:01.953Z,102084.63
2023-05-20T09:25:29.394Z,102089.44
2023-05-20T09:27:56.171Z,102090.28
2023-05-20T09:30:23.604Z,102098.78
2023-05-20T09:32:54.345Z,102094.28
2023-05-20T09:35:24.999Z,102084.94
2023-05-20T09:37:56.028Z,102089.44
2023-05-20T09:40:28.951Z,102087.22
2023-05-20T09:43:07.272Z,102085.22
2023-05-20T09:45:34.524Z,102088.91
2023-05-20T09:48:02.112Z,102087.19
2023-05-20T09:50:30.093Z,102086.34
2023-05-20T09:52:56.877Z,102082.97
2023-05-20T09:55:25.005Z,102086.88
2023-05-20T09:57:53.170Z,102085.75
2023-05-20T10:00:19.769Z,102083.44
2023-05-20T10:02:49.034Z,102082.63
2023-05-20T10:05:20.046Z,102076.13
2023-05-20T10:07:58.592Z,102072.72
2023-05-20T10:10:40.606Z,102071.53
2023-05-20T10:13:18.102Z,102062.91
2023-05-20T10:16:17.167Z,102064.69
2023-05-20T10:19:11.919Z,102061.13
2023-05-20T10:21:38.523Z,102062.75
2023-05-20T10:24:09.229Z,102064.53
2023-05-20T10:26:37.284Z,102056.56
2023-05-20T10:29:18.157Z,102048.53
2023-05-20T10:31:48.484Z,102052.16
2023-05-20T10:34:17.424Z,102054.44
2023-05-20T10:36:58.253Z,102047.94
2023-05-20T10:39:34.508Z,102051.41
2023-05-20T10:42:11.239Z,102042.09
2023-05-20T10:44:41.614Z,102037.94
2023-05-20T10:47:24.847Z,102040.28
2023-05-20T10:49:52.655Z,102042.47
2023-05-20T10:52:20.155Z,102042.25
2023-05-20T10:54:57.343Z,102043.06
2023-05-20T10:57:26.351Z,102036.06
2023-05-20T10:59:53.188Z,102030.56
2023-05-20T11:02:26.588Z,102039.53
2023-05-20T11:04:53.803Z,102035.28
2023-05-20T11:07:31.494Z,102026.47
2023-05-20T11:09:58.819Z,102015.69
2023-05-20T11:12:26.734Z,102011.00
2023-05-20T11:14:53.673Z,102007.09
2023-05-20T11:17:20.433Z,102011.69
2023-05-20T11:19:47.773Z,102013.59
2023-05-20T11:22:14.346Z,102002.47
2023-05-20T11:24:40.937Z,102008.97
2023-05-20T11:27:07.671Z,102003.31
2023-05-20T11:29:34.164Z,102009.41
2023-05-20T11:32:01.309Z,102004.22
2023-05-20T11:34:34.771Z,101993.25
2023-05-20T11:37:01.320Z,101996.75
2023-05-20T11:39:30.521Z,101998.91
2023-05-20T11:41:58.039Z,101995.50
2023-05-20T11:44:25.035Z,101989.69
2023-05-20T11:46:51.514Z,101988.88
2023-05-20T11:49:17.969Z,101979.00
2023-05-20T11:51:44.897Z,101984.06
2023-05-20T11:54:11.706Z,101978.41
2023-05-20T11:56:39.027Z,101982.88
2023-05-20T11:59:06.548Z,101971.53
2023-05-20T12:01:37.684Z,101969.69
2023-05-20T12:04:08.319Z,101963.59
2023-05-20T12:06:37.135Z,101962.81
2023-05-20T12:09:08.532Z,101952.19
2023-05-20T12:11:41.074Z,101954.09
2023-05-20T12:14:08.688Z,101950.53
2023-05-20T12:16:35.933Z,101955.06
2023-05-20T12:19:02.906Z,101945.81
2023-05-20T12:21:31.214Z,101938.22
2023-05-20T12:23:59.692Z,101933.03
2023-05-20T12:26:29.975Z,101940.63
2023-05-20T12:28:56.715Z,101940.06
2023-05-20T12:31:23.341Z,101934.59
2023-05-20T12:33:49.886Z,101923.16
2023-05-20T12:36:16.384Z,101922.75
2023-05-20T12:38:42.906Z,101920.53
2023-05-20T12:41:09.362Z,101912.03
2023-05-20T12:43:37.499Z,101915.59
2023-05-20T12:46:04.296Z,101911.84
2023-05-20T12:48:30.873Z,101911.19
2023-05-20T12:50:57.394Z,101916.78
2023-05-20T12:53:23.861Z,101904.84
2023-05-20T12:55:50.324Z,101899.06
2023-05-20T12:58:16.808Z,101900.84
2023-05-20T13:00:43.309Z,101906.91
2023-05-20T13:03:09.982Z,101897.81
2023-05-20T13:05:36.556Z,101896.28
2023-05-20T13:08:03.211Z,101896.56
2023-05-20T13:10:29.663Z,101889.97
2023-05-20T13:12:56.723Z,101888.69
2023-05-20T13:15:23.191Z,101891.44
2023-05-20T13:17:49.735Z,101880.38
2023-05-20T13:20:19.068Z,101880.06
2023-05-20T13:22:46.405Z,101870.38
2023-05-20T13:25:12.922Z,101873.00
2023-05-20T13:27:39.463Z,101861.44
2023-05-20T13:30:06.889Z,101869.94
2023-05-20T13:32:33.456Z,101870.59
2023-05-20T13:35:00.022Z,101859.84
2023-05-20T13:37:26.536Z,101846.03
2023-05-20T13:39:53.025Z,101841.38
2023-05-20T13:42:19.480Z,101845.41
2023-05-20T13:44:46.586Z,101839.16
2023-05-20T13:47:13.061Z,101832.19
2023-05-20T13:49:39.546Z,101840.25
2023-05-20T13:52:06.186Z,101834.19
2023-05-20T13:54:32.667Z,101841.16
2023-05-20T13:56:59.123Z,101836.78
2023-05-20T13:59:25.714Z,101841.16
2023-05-20T14:01:53.583Z,101833.41
2023-05-20T14:04:20.134Z,101840.66
2023-05-20T14:06:46.625Z,101843.88
2023-05-20T14:09:13.068Z,101836.78
2023-05-20T14:11:39.532Z,101835.59
2023-05-20T14:14:06.344Z,101828.75
2023-05-20T14:16:33.140Z,101822.63
2023-05-20T14:18:59.759Z,101817.09
2023-05-20T14:21:26.267Z,101827.94
2023-05-20T14:23:52.695Z,101819.84
2023-05-20T14:26:19.161Z,101816.81
2023-05-20T14:28:45.590Z,101813.09
2023-05-20T14:31:12.077Z,101808.25
2023-05-20T14:33:38.547Z,101802.56
2023-05-20T14:36:05.148Z,101801.66
2023-05-20T14:38:31.603Z,101803.25
2023-05-20T14:40:58.077Z,101796.06
2023-05-20T14:43:24.538Z,101794.91
2023-05-20T14:45:51.965Z,101792.06
2023-05-20T14:48:18.474Z,101793.75
2023-05-20T14:50:44.967Z,101790.66
2023-05-20T14:53:11.428Z,101780.34
2023-05-20T14:55:37.914Z,101784.19
2023-05-20T14:58:04.409Z,101784.56
2023-05-20T15:00:32.731Z,101777.00
2023-05-20T15:02:59.398Z,101777.28
2023-05-20T15:05:25.883Z,101778.88
2023-05-20T15:07:52.451Z,101777.38
2023-05-20T15:10:18.979Z,101770.72
2023-05-20T15:12:45.555Z,101773.88
2023-05-20T15:15:12.100Z,101770.38
2023-05-20T15:17:38.770Z,101759.97
2023-05-20T15:20:05.877Z,101757.13
2023-05-20T15:22:32.385Z,101758.81
2023-05-20T15:24:58.894Z,101749.16
2023-05-20T15:27:25.400Z,101755.81
2023-05-20T15:29:51.880Z,101756.88
2023-05-20T15:32:19.866Z,101755.28
2023-05-20T15:34:46.440Z,101758.19
2023-05-20T15:37:12.992Z,101749.25
2023-05-20T15:39:39.517Z,101746.63
2023-05-20T15:42:06.538Z,101743.47
2023-05-20T15:44:33.512Z,101749.22
2023-05-20T15:46:59.981Z,101756.94
2023-05-20T15:49:26.444Z,101748.09
2023-05-20T15:52:03.100Z,101753.41
2023-05-20T15:54:31.053Z,101744.00
2023-05-20T15:56:58.079Z,101735.59
2023-05-20T15:59:24.675Z,101736.78
2023-05-20T16:01:51.320Z,101735.78
2023-05-20T16:04:18.014Z,101729.25
2023-05-20T16:06:44.590Z,101724.94
2023-05-20T16:09:11.260Z,101717.44
2023-05-20T16:14:04.095Z,101720.88
2023-05-20T16:16:30.627Z,101721.00
2023-05-20T16:18:58.835Z,101715.84
2023-05-20T16:21:26.061Z,101718.75
2023-05-20T16:23:55.142Z,101714.88
2023-05-20T16:26:22.718Z,101708.47
2023-05-20T16:28:49.182Z,101710.16
2023-05-20T16:31:15.674Z,101711.78
2023-05-20T16:33:42.235Z,101706.19
2023-05-20T16:36:08.676Z,101705.06
2023-05-20T16:38:35.166Z,101698.03
2023-05-20T16:41:01.874Z,101698.06
2023-05-20T16:43:28.400Z,101699.84
2023-05-20T16:45:54.936Z,101704.84
2023-05-20T16:48:21.636Z,101698.19
2023-05-20T16:50:48.093Z,101702.69
2023-05-20T16:53:16.313Z,101695.97
2023-05-20T16:55:43.050Z,101705.31
2023-05-20T16:58:09.540Z,101694.34
2023-05-20T17:00:36.179Z,101698.34
2023-05-20T17:03:02.807Z,101696.84
2023-05-20T17:05:29.309Z,101700.47
2023-05-20T17:07:59.754Z,101697.44
2023-05-20T17:10:27.776Z,101699.81
2023-05-20T17:12:54.242Z,101692.44
2023-05-20T17:15:20.728Z,101697.28
2023-05-20T17:17:47.299Z,101681.50
2023-05-20T17:20:13.813Z,101676.69
2023-05-20T17:22:40.460Z,101678.31
2023-05-20T17:25:07.204Z,101681.19
2023-05-20T17:27:33.666Z,101683.56
2023-05-20T17:30:00.232Z,101679.56
2023-05-20T17:32:26.758Z,101683.84
2023-05-20T17:34:53.219Z,101687.06
2023-05-20T17:37:20.950Z,101684.50
2023-05-20T17:39:47.413Z,101685.66
2023-05-20T17:42:13.853Z,101679.28
2023-05-20T17:44:40.626Z,101683.41
2023-05-20T17:47:07.096Z,101679.63
2023-05-20T17:49:33.565Z,101685.91
2023-05-20T17:52:00.027Z,101688.31
2023-05-20T17:54:26.485Z,101685.13
2023-05-20T17:56:52.941Z,101683.78
2023-05-20T17:59:19.413Z,101682.94
2023-05-20T18:01:46.634Z,101677.25
2023-05-20T18:04:13.168Z,101675.25
2023-05-20T18:06:39.844Z,101674.25
2023-05-20T18:09:06.290Z,101676.78
2023-05-20T18:11:33.718Z,101678.97
2023-05-20T18:14:00.620Z,101676.06
2023-05-20T18:16:28.427Z,101668.81
2023-05-20T18:18:55.818Z,101666.81
2023-05-20T18:21:23.668Z,101675.88
2023-05-20T18:23:50.410Z,101674.75
2023-05-20T18:26:17.106Z,101669.38
2023-05-20T18:28:43.579Z,101673.06
2023-05-20T18:31:10.076Z,101679.25
2023-05-20T18:33:37.057Z,101671.91
2023-05-20T18:36:05.694Z,101676.34
2023-05-20T18:38:32.480Z,101673.69
2023-05-20T18:40:59.520Z,101679.50
2023-05-20T18:43:26.565Z,101671.50
2023-05-20T18:45:53.267Z,101672.16
2023-05-20T18:48:26.692Z,101685.19
2023-05-20T18:50:54.812Z,101680.97
2023-05-20T18:53:21.574Z,101681.38
2023-05-20T18:55:48.379Z,101688.53
2023-05-20T18:58:15.166Z,101681.38
2023-05-20T19:00:41.820Z,101687.94
2023-05-20T19:03:08.418Z,101692.59
2023-05-20T19:05:35.180Z,101685.44
2023-05-20T19:08:02.716Z,101690.59
2023-05-20T19:10:29.528Z,101698.91
2023-05-20T19:12:56.589Z,101691.28
2023-05-20T19:15:23.064Z,101702.75
2023-05-20T19:17:49.565Z,101698.13
2023-05-20T19:20:16.114Z,101695.38
2023-05-20T19:22:42.594Z,101691.72
2023-05-20T19:25:09.412Z,101695.94
2023-05-20T19:27:36.170Z,101690.47
2023-05-20T19:30:02.741Z,101692.16
2023-05-20T19:32:29.516Z,101692.34
2023-05-20T19:34:56.370Z,101690.16
2023-05-20T19:37:24.354Z,101700.88
2023-05-20T19:39:51.205Z,101703.84
2023-05-20T19:42:20.925Z,101694.06
2023-05-20T19:44:47.814Z,101703.19
2023-05-20T19:47:14.667Z,101701.72
2023-05-20T19:49:41.157Z,101698.78
2023-05-20T19:52:07.721Z,101702.47
2023-05-20T19:54:34.377Z,101712.34
2023-05-20T19:57:00.844Z,101719.19
2023-05-20T19:59:27.333Z,101713.41
2023-05-20T20:01:53.907Z,101709.41
2023-05-20T20:04:20.466Z,101711.22
2023-05-20T20:06:47.999Z,101703.91
2023-05-20T20:09:14.694Z,101703.34
2023-05-20T20:11:41.315Z,101708.56
2023-05-20T20:14:07.772Z,101707.41
2023-05-20T20:16:34.659Z,101713.91
2023-05-20T20:19:01.398Z,101713.81
2023-05-20T20:21:27.924Z,101708.38
2023-05-20T20:23:54.423Z,101700.28
2023-05-20T20:26:25.661Z,101697.97
2023-05-20T20:28:52.144Z,101702.06
2023-05-20T20:31:18.638Z,101704.66
2023-05-20T20:33:45.257Z,101701.72
2023-05-20T20:36:11.723Z,101706.38
2023-05-20T20:38:38.618Z,101703.63
2023-05-20T20:41:05.149Z,101701.09
2023-05-20T20:43:34.666Z,101697.03
2023-05-20T20:46:01.239Z,101704.06
2023-05-20T20:48:27.744Z,101700.59
2023-05-20T20:50:54.361Z,101699.25
2023-05-20T20:53:21.909Z,101699.41
2023-05-20T20:55:48.449Z,101701.00
2023-05-20T20:58:15.546Z,101693.56
2023-05-20T21:00:44.915Z,101693.47
2023-05-20T21:03:12.708Z,101684.63
2023-05-20T21:05:39.674Z,101688.53
2023-05-20T21:08:08.334Z,101679.16
2023-05-20T21:10:36.972Z,101677.69
2023-05-20T21:13:03.681Z,101683.25
2023-05-20T21:15:30.237Z,101674.22
2023-05-20T21:17:56.769Z,101661.56
2023-05-20T21:20:23.515Z,101668.44
2023-05-20T21:22:49.970Z,101663.13
2023-05-20T21:25:16.569Z,101658.91
2023-05-20T21:27:43.079Z,101661.41
2023-05-20T21:30:10.750Z,101659.31
2023-05-20T21:32:38.006Z,101660.03
2023-05-20T21:35:04.751Z,101654.72
2023-05-20T21:37:31.252Z,101651.97
2023-05-20T21:39:57.720Z,101656.16
2023-05-20T21:42:24.209Z,101647.34
2023-05-20T21:44:50.731Z,101647.53
2023-05-20T21:47:17.252Z,101649.94
2023-05-20T21:49:43.725Z,101646.31
2023-05-20T21:52:10.232Z,101649.22
2023-05-20T21:54:36.686Z,101645.75
2023-05-20T21:57:03.393Z,101649.94
2023-05-20T21:59:29.900Z,101643.50
2023-05-20T22:01:57.989Z,101644.75
2023-05-20T22:04:25.068Z,101644.69
2023-05-20T22:06:51.703Z,101643.19
2023-05-20T22:09:18.283Z,101648.84
2023-05-20T22:11:45.230Z,101642.75
2023-05-20T22:14:15.990Z,101634.34
2023-05-20T22:16:46.608Z,101644.69
2023-05-20T22:19:15.106Z,101645.16
2023-05-20T22:24:14.590Z,101633.84
2023-05-20T22:26:41.075Z,101642.53
2023-05-20T22:29:07.628Z,101641.09
2023-05-20T22:31:34.128Z,101635.34
2023-05-20T22:34:00.682Z,101639.78
2023-05-20T22:36:28.056Z,101636.25
2023-05-20T22:38:54.526Z,101633.97
2023-05-20T22:41:21.715Z,101637.09
2023-05-20T22:43:48.214Z,101633.13
2023-05-20T22:46:14.768Z,101632.88
2023-05-20T22:48:41.732Z,101623.94
2023-05-20T22:51:08.884Z,101627.16
2023-05-20T22:53:35.367Z,101626.53
2023-05-20T22:56:02.310Z,101625.78
2023-05-20T22:58:29.703Z,101620.34
2023-05-20T23:00:56.523Z,101625.16
2023-05-20T23:03:23.054Z,101617.19
2023-05-20T23:05:49.531Z,101614.06
2023-05-20T23:08:16.218Z,101612.16
2023-05-20T23:10:42.668Z,101607.25
2023-05-20T23:13:09.118Z,101600.03
2023-05-20T23:15:35.716Z,101600.56
2023-05-20T23:18:02.429Z,101604.84
2023-05-20T23:20:29.602Z,101603.75
2023-05-20T23:22:56.110Z,101603.13
2023-05-20T23:25:24.353Z,101604.22
2023-05-20T23:27:50.930Z,101592.56
2023-05-20T23:30:17.416Z,101590.78
2023-05-20T23:32:43.988Z,101592.25
2023-05-20T23:35:11.529Z,101591.31
2023-05-20T23:37:38.865Z,101585.38
2023-05-20T23:40:06.527Z,101580.72
2023-05-20T23:42:33.041Z,101583.72
2023-05-20T23:44:59.531Z,101577.84
2023-05-20T23:47:29.846Z,101586.31
2023-05-20T23:49:57.499Z,101575.22
2023-05-20T23:52:24.771Z,101572.56
2023-05-20T23:54:52.045Z,101574.56
2023-05-20T23:57:19.468Z,101574.00
2023-05-20T23:59:49.074Z,101570.44
